KEAN/EAN METAR and TAF weather

Enter ICAO airport designator
Station Type Date Time Source
KEAN METAR 2021/02/25 16:55 UTC NOAA

KEAN 251655Z AUTO 24014G20KT 10SM CLR 00/M10 A3018 RMK AO2 T00001104


Station Type Date Time Source
KEAN Decoded METAR 2021/02/25 16:55 UTC NOAA

Station name not available
Feb 25, 2021 - 11:55 AM EST / 2021.02.25 1655 UTC
Wind: from the WSW (240 degrees) at 16 MPH (14 KT) gusting to 23 MPH (20 KT):0
Visibility: 10 mile(s):0
Sky conditions: clear
Temperature: 32.0 F (0.0 C)
Windchill: 21 F (-6 C):1
Dew Point: 13.3 F (-10.4 C)
Relative Humidity: 45%
Pressure (altimeter): 30.18 in. Hg (1022 hPa)
ob: KEAN 251655Z AUTO 24014G20KT 10SM CLR 00/M10 A3018 RMK AO2 T00001104
cycle: 17

Station Type Date Time Source
KEAN TAF UTC NOAA

Error!

Example: see airport list